sensor_id;sensor_type;location;lat;lon;timestamp;pressure;altitude;pressure_sealevel;temperature;humidity
56807;BME280;42687;42.524;12.052;2022-07-22T00:01:35;96906.69;;;21.05;81.49
56807;BME280;42687;42.524;12.052;2022-07-22T00:04:01;96903.47;;;21.02;80.47
56807;BME280;42687;42.524;12.052;2022-07-22T00:06:27;96901.28;;;20.97;72.66
56807;BME280;42687;42.524;12.052;2022-07-22T00:08:54;96899.44;;;20.97;74.04
56807;BME280;42687;42.524;12.052;2022-07-22T00:11:19;96911.97;;;20.97;77.87
56807;BME280;42687;42.524;12.052;2022-07-22T00:13:45;96905.91;;;20.95;78.35
56807;BME280;42687;42.524;12.052;2022-07-22T00:16:11;96902.56;;;20.93;76.50
56807;BME280;42687;42.524;12.052;2022-07-22T00:18:37;96903.25;;;20.95;78.67
56807;BME280;42687;42.524;12.052;2022-07-22T00:21:02;96908.28;;;20.98;79.96
56807;BME280;42687;42.524;12.052;2022-07-22T00:23:28;96909.97;;;20.99;80.95
56807;BME280;42687;42.524;12.052;2022-07-22T00:25:53;96908.16;;;20.99;81.20
56807;BME280;42687;42.524;12.052;2022-07-22T00:28:19;96897.00;;;21.04;80.39
56807;BME280;42687;42.524;12.052;2022-07-22T00:30:44;96896.25;;;21.12;80.59
56807;BME280;42687;42.524;12.052;2022-07-22T00:33:10;96903.50;;;21.20;79.97
56807;BME280;42687;42.524;12.052;2022-07-22T00:35:36;96896.00;;;21.23;78.95
56807;BME280;42687;42.524;12.052;2022-07-22T00:38:01;96899.91;;;21.29;79.54
56807;BME280;42687;42.524;12.052;2022-07-22T00:40:27;96907.22;;;21.27;80.08
56807;BME280;42687;42.524;12.052;2022-07-22T00:42:52;96898.81;;;21.22;80.27
56807;BME280;42687;42.524;12.052;2022-07-22T00:45:18;96893.63;;;21.20;80.37
56807;BME280;42687;42.524;12.052;2022-07-22T00:47:43;96870.56;;;21.01;80.30
56807;BME280;42687;42.524;12.052;2022-07-22T00:50:09;96897.69;;;21.24;80.46
56807;BME280;42687;42.524;12.052;2022-07-22T00:52:34;96890.19;;;21.28;78.07
56807;BME280;42687;42.524;12.052;2022-07-22T00:55:00;96883.16;;;21.27;79.31
56807;BME280;42687;42.524;12.052;2022-07-22T00:57:26;96896.16;;;21.40;78.21
56807;BME280;42687;42.524;12.052;2022-07-22T00:59:52;96896.53;;;21.45;78.79
56807;BME280;42687;42.524;12.052;2022-07-22T01:02:18;96894.84;;;21.44;80.62
56807;BME280;42687;42.524;12.052;2022-07-22T01:04:44;96894.78;;;21.36;81.28
56807;BME280;42687;42.524;12.052;2022-07-22T01:07:09;96896.22;;;21.30;82.15
56807;BME280;42687;42.524;12.052;2022-07-22T01:09:35;96886.00;;;21.25;82.83
56807;BME280;42687;42.524;12.052;2022-07-22T01:12:01;96893.19;;;21.25;81.33
56807;BME280;42687;42.524;12.052;2022-07-22T01:14:27;96891.78;;;21.21;74.75
56807;BME280;42687;42.524;12.052;2022-07-22T01:16:52;96894.63;;;21.19;79.73
56807;BME280;42687;42.524;12.052;2022-07-22T01:19:18;96887.22;;;21.13;80.42
56807;BME280;42687;42.524;12.052;2022-07-22T01:21:43;96885.00;;;21.08;82.26
56807;BME280;42687;42.524;12.052;2022-07-22T01:24:09;96890.34;;;21.08;84.12
56807;BME280;42687;42.524;12.052;2022-07-22T01:26:35;96884.84;;;21.10;84.66
56807;BME280;42687;42.524;12.052;2022-07-22T01:29:00;96880.50;;;21.09;84.39
56807;BME280;42687;42.524;12.052;2022-07-22T01:31:26;96883.19;;;21.09;81.72
56807;BME280;42687;42.524;12.052;2022-07-22T01:33:53;96886.44;;;21.03;77.87
56807;BME280;42687;42.524;12.052;2022-07-22T01:36:19;96887.44;;;21.02;81.30
56807;BME280;42687;42.524;12.052;2022-07-22T01:38:44;96881.53;;;20.98;79.30
56807;BME280;42687;42.524;12.052;2022-07-22T01:41:10;96889.88;;;20.95;79.05
56807;BME280;42687;42.524;12.052;2022-07-22T01:43:36;96883.56;;;20.96;81.22
56807;BME280;42687;42.524;12.052;2022-07-22T01:46:02;96888.50;;;20.91;75.84
56807;BME280;42687;42.524;12.052;2022-07-22T01:48:27;96856.13;;;20.66;75.18
56807;BME280;42687;42.524;12.052;2022-07-22T01:50:53;96886.72;;;20.81;79.45
56807;BME280;42687;42.524;12.052;2022-07-22T01:53:19;96886.66;;;20.73;82.39
56807;BME280;42687;42.524;12.052;2022-07-22T01:55:44;96879.03;;;20.69;83.45
56807;BME280;42687;42.524;12.052;2022-07-22T01:58:10;96874.16;;;20.64;81.95
56807;BME280;42687;42.524;12.052;2022-07-22T02:00:36;96869.00;;;20.53;78.45
56807;BME280;42687;42.524;12.052;2022-07-22T02:03:01;96877.63;;;20.46;72.61
56807;BME280;42687;42.524;12.052;2022-07-22T02:05:27;96881.28;;;20.45;71.21
56807;BME280;42687;42.524;12.052;2022-07-22T02:07:53;96875.25;;;20.43;74.18
56807;BME280;42687;42.524;12.052;2022-07-22T02:10:23;96871.91;;;20.41;75.38
56807;BME280;42687;42.524;12.052;2022-07-22T02:12:49;96871.19;;;20.39;71.54
56807;BME280;42687;42.524;12.052;2022-07-22T02:15:14;96884.53;;;20.39;72.90
56807;BME280;42687;42.524;12.052;2022-07-22T02:17:40;96866.84;;;20.38;70.63
56807;BME280;42687;42.524;12.052;2022-07-22T02:20:05;96870.50;;;20.37;63.89
56807;BME280;42687;42.524;12.052;2022-07-22T02:22:31;96867.78;;;20.47;77.38
56807;BME280;42687;42.524;12.052;2022-07-22T02:24:57;96876.63;;;20.47;76.43
56807;BME280;42687;42.524;12.052;2022-07-22T02:27:22;96873.13;;;20.47;74.14
56807;BME280;42687;42.524;12.052;2022-07-22T02:29:48;96865.69;;;20.41;74.01
56807;BME280;42687;42.524;12.052;2022-07-22T02:32:13;96872.78;;;20.32;73.48
56807;BME280;42687;42.524;12.052;2022-07-22T02:34:39;96871.97;;;20.22;75.07
56807;BME280;42687;42.524;12.052;2022-07-22T02:37:04;96869.22;;;20.13;76.38
56807;BME280;42687;42.524;12.052;2022-07-22T02:39:30;96867.53;;;20.03;70.27
56807;BME280;42687;42.524;12.052;2022-07-22T02:41:55;96869.28;;;19.94;71.87
56807;BME280;42687;42.524;12.052;2022-07-22T02:44:21;96868.03;;;19.88;73.18
56807;BME280;42687;42.524;12.052;2022-07-22T02:46:47;96868.16;;;19.87;72.04
56807;BME280;42687;42.524;12.052;2022-07-22T02:49:12;96866.75;;;19.82;77.62
56807;BME280;42687;42.524;12.052;2022-07-22T02:51:38;96864.50;;;19.78;78.69
56807;BME280;42687;42.524;12.052;2022-07-22T02:54:03;96870.97;;;19.75;75.66
56807;BME280;42687;42.524;12.052;2022-07-22T02:56:29;96868.31;;;19.75;74.75
56807;BME280;42687;42.524;12.052;2022-07-22T02:58:54;96865.50;;;19.77;76.67
56807;BME280;42687;42.524;12.052;2022-07-22T03:01:20;96865.50;;;19.77;78.08
56807;BME280;42687;42.524;12.052;2022-07-22T03:03:46;96860.31;;;19.75;76.35
56807;BME280;42687;42.524;12.052;2022-07-22T03:06:11;96865.94;;;19.72;74.56
56807;BME280;42687;42.524;12.052;2022-07-22T03:08:37;96869.72;;;19.70;75.21
56807;BME280;42687;42.524;12.052;2022-07-22T03:11:04;96847.56;;;19.49;78.25
56807;BME280;42687;42.524;12.052;2022-07-22T03:13:29;96865.25;;;19.60;78.49
56807;BME280;42687;42.524;12.052;2022-07-22T03:15:55;96863.00;;;19.56;72.87
56807;BME280;42687;42.524;12.052;2022-07-22T03:18:20;96873.97;;;19.53;77.43
56807;BME280;42687;42.524;12.052;2022-07-22T03:20:46;96867.25;;;19.48;78.43
56807;BME280;42687;42.524;12.052;2022-07-22T03:23:13;96862.47;;;19.42;73.06
56807;BME280;42687;42.524;12.052;2022-07-22T03:25:38;96869.19;;;19.46;76.53
56807;BME280;42687;42.524;12.052;2022-07-22T03:28:04;96870.88;;;19.47;77.86
56807;BME280;42687;42.524;12.052;2022-07-22T03:30:29;96867.25;;;19.48;78.12
56807;BME280;42687;42.524;12.052;2022-07-22T03:32:55;96876.22;;;19.47;78.98
56807;BME280;42687;42.524;12.052;2022-07-22T03:35:21;96870.16;;;19.45;79.93
56807;BME280;42687;42.524;12.052;2022-07-22T03:37:47;96872.16;;;19.43;77.33
56807;BME280;42687;42.524;12.052;2022-07-22T03:40:12;96869.50;;;19.43;77.18
56807;BME280;42687;42.524;12.052;2022-07-22T03:42:38;96872.16;;;19.43;78.34
56807;BME280;42687;42.524;12.052;2022-07-22T03:45:03;96872.41;;;19.40;76.94
56807;BME280;42687;42.524;12.052;2022-07-22T03:47:29;96831.06;;;19.16;74.92
56807;BME280;42687;42.524;12.052;2022-07-22T03:49:54;96873.97;;;19.43;76.35
56807;BME280;42687;42.524;12.052;2022-07-22T03:52:20;96878.31;;;19.44;77.88
56807;BME280;42687;42.524;12.052;2022-07-22T03:54:45;96884.50;;;19.44;77.45
56807;BME280;42687;42.524;12.052;2022-07-22T03:57:11;96870.47;;;19.42;78.84
56807;BME280;42687;42.524;12.052;2022-07-22T03:59:37;96884.91;;;19.40;80.19
56807;BME280;42687;42.524;12.052;2022-07-22T04:02:02;96880.03;;;19.35;78.16
56807;BME280;42687;42.524;12.052;2022-07-22T04:04:28;96878.34;;;19.34;79.17
56807;BME280;42687;42.524;12.052;2022-07-22T04:06:54;96883.09;;;19.30;80.34
56807;BME280;42687;42.524;12.052;2022-07-22T04:09:19;96880.00;;;19.25;79.44
56807;BME280;42687;42.524;12.052;2022-07-22T04:11:45;96880.59;;;19.19;78.25
56807;BME280;42687;42.524;12.052;2022-07-22T04:14:11;96875.53;;;19.16;79.04
56807;BME280;42687;42.524;12.052;2022-07-22T04:16:37;96877.75;;;19.11;75.60
56807;BME280;42687;42.524;12.052;2022-07-22T04:19:02;96883.97;;;19.11;76.34
56807;BME280;42687;42.524;12.052;2022-07-22T04:21:28;96882.84;;;19.14;76.66
56807;BME280;42687;42.524;12.052;2022-07-22T04:23:54;96880.72;;;19.17;77.51
56807;BME280;42687;42.524;12.052;2022-07-22T04:26:19;96830.50;;;18.93;78.09
56807;BME280;42687;42.524;12.052;2022-07-22T04:28:45;96879.19;;;19.25;78.07
56807;BME280;42687;42.524;12.052;2022-07-22T04:31:11;96831.22;;;18.95;78.97
56807;BME280;42687;42.524;12.052;2022-07-22T04:33:36;96887.59;;;19.30;80.01
56807;BME280;42687;42.524;12.052;2022-07-22T04:36:02;96879.31;;;19.33;80.25
56807;BME280;42687;42.524;12.052;2022-07-22T04:38:28;96875.66;;;19.34;80.43
56807;BME280;42687;42.524;12.052;2022-07-22T04:40:53;96890.69;;;19.35;79.87
56807;BME280;42687;42.524;12.052;2022-07-22T04:43:19;96882.94;;;19.32;76.08
56807;BME280;42687;42.524;12.052;2022-07-22T04:45:44;96883.94;;;19.31;75.39
56807;BME280;42687;42.524;12.052;2022-07-22T04:48:10;96880.16;;;19.33;72.63
56807;BME280;42687;42.524;12.052;2022-07-22T04:50:36;96884.91;;;19.40;72.20
56807;BME280;42687;42.524;12.052;2022-07-22T04:53:01;96886.06;;;19.47;71.74
56807;BME280;42687;42.524;12.052;2022-07-22T04:55:27;96884.63;;;19.53;71.65
56807;BME280;42687;42.524;12.052;2022-07-22T04:57:52;96881.38;;;19.59;70.36
56807;BME280;42687;42.524;12.052;2022-07-22T05:00:18;96885.84;;;19.68;68.18
56807;BME280;42687;42.524;12.052;2022-07-22T05:02:44;96874.63;;;19.74;66.73
56807;BME280;42687;42.524;12.052;2022-07-22T05:05:09;96882.16;;;19.98;66.08
56807;BME280;42687;42.524;12.052;2022-07-22T05:07:35;96888.41;;;20.17;66.02
56807;BME280;42687;42.524;12.052;2022-07-22T05:10:00;96887.41;;;20.28;65.63
56807;BME280;42687;42.524;12.052;2022-07-22T05:12:26;96886.53;;;20.37;66.22
56807;BME280;42687;42.524;12.052;2022-07-22T05:14:51;96884.78;;;20.46;66.62
56807;BME280;42687;42.524;12.052;2022-07-22T05:17:17;96887.13;;;20.59;64.77
56807;BME280;42687;42.524;12.052;2022-07-22T05:19:42;96894.03;;;20.79;62.65
56807;BME280;42687;42.524;12.052;2022-07-22T05:22:08;96891.97;;;21.01;61.26
56807;BME280;42687;42.524;12.052;2022-07-22T05:24:34;96888.91;;;21.32;61.07
56807;BME280;42687;42.524;12.052;2022-07-22T05:26:59;96882.53;;;21.51;62.07
56807;BME280;42687;42.524;12.052;2022-07-22T05:29:25;96893.19;;;21.61;61.79
56807;BME280;42687;42.524;12.052;2022-07-22T05:31:50;96898.59;;;21.69;61.13
56807;BME280;42687;42.524;12.052;2022-07-22T05:34:16;96891.31;;;21.79;56.32
56807;BME280;42687;42.524;12.052;2022-07-22T05:36:41;96892.41;;;21.95;55.44
56807;BME280;42687;42.524;12.052;2022-07-22T05:39:07;96886.47;;;22.09;54.75
56807;BME280;42687;42.524;12.052;2022-07-22T05:41:32;96894.44;;;22.27;56.21
56807;BME280;42687;42.524;12.052;2022-07-22T05:43:58;96900.38;;;22.39;59.26
56807;BME280;42687;42.524;12.052;2022-07-22T05:46:23;96890.88;;;22.53;58.26
56807;BME280;42687;42.524;12.052;2022-07-22T05:48:49;96891.28;;;22.66;58.77
56807;BME280;42687;42.524;12.052;2022-07-22T05:51:15;96898.69;;;22.81;57.77
56807;BME280;42687;42.524;12.052;2022-07-22T05:53:41;96904.13;;;22.97;57.62
56807;BME280;42687;42.524;12.052;2022-07-22T05:56:07;96907.53;;;23.16;56.53
56807;BME280;42687;42.524;12.052;2022-07-22T05:58:34;96906.91;;;23.39;53.49
56807;BME280;42687;42.524;12.052;2022-07-22T06:00:59;96896.47;;;23.69;54.54
56807;BME280;42687;42.524;12.052;2022-07-22T06:03:25;96898.75;;;24.38;51.63
56807;BME280;42687;42.524;12.052;2022-07-22T06:05:50;96907.03;;;25.30;50.32
56807;BME280;42687;42.524;12.052;2022-07-22T06:08:16;96909.03;;;26.21;50.09
56807;BME280;42687;42.524;12.052;2022-07-22T06:10:41;96903.81;;;27.16;49.38
56807;BME280;42687;42.524;12.052;2022-07-22T06:13:07;96897.97;;;27.99;49.31
56807;BME280;42687;42.524;12.052;2022-07-22T06:15:32;96906.63;;;28.79;48.82
56807;BME280;42687;42.524;12.052;2022-07-22T06:17:58;96912.47;;;29.52;48.85
56807;BME280;42687;42.524;12.052;2022-07-22T06:20:23;96916.50;;;30.09;48.40
56807;BME280;42687;42.524;12.052;2022-07-22T06:22:49;96930.00;;;30.56;48.68
56807;BME280;42687;42.524;12.052;2022-07-22T06:25:14;96901.44;;;30.99;48.35
56807;BME280;42687;42.524;12.052;2022-07-22T06:27:40;96919.13;;;31.60;47.86
56807;BME280;42687;42.524;12.052;2022-07-22T06:30:05;96913.88;;;31.91;47.97
56807;BME280;42687;42.524;12.052;2022-07-22T06:32:32;96920.22;;;32.35;47.55
56807;BME280;42687;42.524;12.052;2022-07-22T06:34:57;96923.00;;;32.72;47.10
56807;BME280;42687;42.524;12.052;2022-07-22T06:37:23;96908.66;;;32.96;47.17
56807;BME280;42687;42.524;12.052;2022-07-22T06:39:48;96919.19;;;33.29;46.89
56807;BME280;42687;42.524;12.052;2022-07-22T06:42:14;96924.63;;;33.71;46.07
56807;BME280;42687;42.524;12.052;2022-07-22T06:44:39;96929.72;;;34.10;45.33
56807;BME280;42687;42.524;12.052;2022-07-22T06:47:05;96924.41;;;34.39;44.38
56807;BME280;42687;42.524;12.052;2022-07-22T06:49:30;96929.16;;;34.44;44.38
56807;BME280;42687;42.524;12.052;2022-07-22T06:51:56;96931.75;;;34.62;44.29
56807;BME280;42687;42.524;12.052;2022-07-22T06:54:21;96927.81;;;34.82;43.62
56807;BME280;42687;42.524;12.052;2022-07-22T06:56:47;96931.94;;;34.96;43.64
56807;BME280;42687;42.524;12.052;2022-07-22T06:59:13;96933.84;;;34.96;43.81
56807;BME280;42687;42.524;12.052;2022-07-22T07:01:38;96942.38;;;35.11;43.83
56807;BME280;42687;42.524;12.052;2022-07-22T07:04:04;96940.53;;;35.29;44.22
56807;BME280;42687;42.524;12.052;2022-07-22T07:06:29;96937.97;;;35.51;44.25
56807;BME280;42687;42.524;12.052;2022-07-22T07:08:55;96935.59;;;35.71;44.23
56807;BME280;42687;42.524;12.052;2022-07-22T07:11:22;96942.78;;;36.06;43.55
56807;BME280;42687;42.524;12.052;2022-07-22T07:13:48;96942.78;;;36.40;43.04
56807;BME280;42687;42.524;12.052;2022-07-22T07:16:14;96944.31;;;36.70;42.22
56807;BME280;42687;42.524;12.052;2022-07-22T07:18:39;96945.47;;;36.75;41.66
56807;BME280;42687;42.524;12.052;2022-07-22T07:21:05;96944.13;;;36.77;41.35
56807;BME280;42687;42.524;12.052;2022-07-22T07:23:30;96941.44;;;36.43;41.14
56807;BME280;42687;42.524;12.052;2022-07-22T07:25:56;96944.88;;;36.33;41.42
56807;BME280;42687;42.524;12.052;2022-07-22T07:28:22;96943.19;;;36.49;40.27
56807;BME280;42687;42.524;12.052;2022-07-22T07:30:47;96939.16;;;36.74;39.64
56807;BME280;42687;42.524;12.052;2022-07-22T07:33:13;96945.94;;;37.11;39.44
56807;BME280;42687;42.524;12.052;2022-07-22T07:35:38;96946.34;;;34.68;29.46
56807;BME280;42687;42.524;12.052;2022-07-22T07:38:04;96940.28;;;34.30;27.88
56807;BME280;42687;42.524;12.052;2022-07-22T07:40:30;96932.22;;;34.12;27.50
56807;BME280;42687;42.524;12.052;2022-07-22T07:42:55;96943.00;;;34.06;27.10
56807;BME280;42687;42.524;12.052;2022-07-22T07:45:21;96936.84;;;35.35;27.40
56807;BME280;42687;42.524;12.052;2022-07-22T07:47:46;96932.56;;;35.39;28.33
56807;BME280;42687;42.524;12.052;2022-07-22T07:50:12;96938.38;;;34.19;29.25
56807;BME280;42687;42.524;12.052;2022-07-22T07:52:42;96942.72;;;33.84;27.91
56807;BME280;42687;42.524;12.052;2022-07-22T07:55:08;96943.94;;;34.12;24.56
56807;BME280;42687;42.524;12.052;2022-07-22T07:57:33;96936.94;;;34.04;26.05
56807;BME280;42687;42.524;12.052;2022-07-22T07:59:59;96943.38;;;34.22;26.49
56807;BME280;42687;42.524;12.052;2022-07-22T08:02:25;96946.47;;;34.37;26.56
56807;BME280;42687;42.524;12.052;2022-07-22T08:04:50;96949.56;;;34.53;24.69
56807;BME280;42687;42.524;12.052;2022-07-22T08:07:16;96955.72;;;34.36;24.74
56807;BME280;42687;42.524;12.052;2022-07-22T08:09:41;96945.00;;;34.23;24.49
56807;BME280;42687;42.524;12.052;2022-07-22T08:12:07;96943.25;;;34.40;25.76
56807;BME280;42687;42.524;12.052;2022-07-22T08:14:33;96943.88;;;34.54;25.19
56807;BME280;42687;42.524;12.052;2022-07-22T08:16:58;96943.13;;;34.83;24.68
56807;BME280;42687;42.524;12.052;2022-07-22T08:19:24;96941.25;;;34.71;23.63
56807;BME280;42687;42.524;12.052;2022-07-22T08:21:50;96944.09;;;34.53;23.90
56807;BME280;42687;42.524;12.052;2022-07-22T08:24:15;96940.53;;;34.40;24.07
56807;BME280;42687;42.524;12.052;2022-07-22T08:26:41;96949.19;;;34.73;23.84
56807;BME280;42687;42.524;12.052;2022-07-22T08:29:07;96953.34;;;34.75;23.79
56807;BME280;42687;42.524;12.052;2022-07-22T08:31:35;96950.84;;;34.98;23.35
56807;BME280;42687;42.524;12.052;2022-07-22T08:34:01;96957.00;;;35.05;24.17
56807;BME280;42687;42.524;12.052;2022-07-22T08:36:27;96950.25;;;34.96;23.19
56807;BME280;42687;42.524;12.052;2022-07-22T08:38:53;96956.50;;;35.08;23.19
56807;BME280;42687;42.524;12.052;2022-07-22T08:41:18;96954.53;;;34.91;23.54
56807;BME280;42687;42.524;12.052;2022-07-22T08:43:46;96964.94;;;35.06;24.16
56807;BME280;42687;42.524;12.052;2022-07-22T08:46:12;96965.31;;;34.98;23.55
56807;BME280;42687;42.524;12.052;2022-07-22T08:48:38;96967.81;;;35.00;23.81
56807;BME280;42687;42.524;12.052;2022-07-22T08:51:05;96963.56;;;35.33;23.22
56807;BME280;42687;42.524;12.052;2022-07-22T08:53:31;96961.06;;;35.43;23.45
56807;BME280;42687;42.524;12.052;2022-07-22T08:55:56;96961.56;;;35.28;23.84
56807;BME280;42687;42.524;12.052;2022-07-22T08:58:24;96977.66;;;35.13;24.83
56807;BME280;42687;42.524;12.052;2022-07-22T09:01:05;96974.13;;;35.29;24.92
56807;BME280;42687;42.524;12.052;2022-07-22T09:03:31;96970.19;;;35.49;25.07
56807;BME280;42687;42.524;12.052;2022-07-22T09:05:57;96967.16;;;35.62;23.60
56807;BME280;42687;42.524;12.052;2022-07-22T09:08:24;96935.41;;;35.32;24.41
56807;BME280;42687;42.524;12.052;2022-07-22T09:10:49;96968.72;;;35.58;22.75
56807;BME280;42687;42.524;12.052;2022-07-22T09:13:15;96974.47;;;35.73;22.42
56807;BME280;42687;42.524;12.052;2022-07-22T09:15:46;96969.16;;;35.38;23.29
56807;BME280;42687;42.524;12.052;2022-07-22T09:18:12;96971.44;;;35.58;23.00
56807;BME280;42687;42.524;12.052;2022-07-22T09:20:38;96969.00;;;35.73;23.55
56807;BME280;42687;42.524;12.052;2022-07-22T09:23:10;96967.25;;;35.96;23.26
56807;BME280;42687;42.524;12.052;2022-07-22T09:25:36;96959.94;;;36.02;23.77
56807;BME280;42687;42.524;12.052;2022-07-22T09:30:31;96958.88;;;35.74;24.03
56807;BME280;42687;42.524;12.052;2022-07-22T09:32:57;96960.53;;;36.04;24.23
56807;BME280;42687;42.524;12.052;2022-07-22T09:35:23;96953.06;;;36.16;24.23
56807;BME280;42687;42.524;12.052;2022-07-22T09:37:54;96954.38;;;36.31;24.21
56807;BME280;42687;42.524;12.052;2022-07-22T09:40:20;96950.09;;;36.35;24.40
56807;BME280;42687;42.524;12.052;2022-07-22T09:42:50;96951.66;;;36.65;23.02
56807;BME280;42687;42.524;12.052;2022-07-22T09:45:16;96954.81;;;36.79;24.16
56807;BME280;42687;42.524;12.052;2022-07-22T09:47:42;96954.28;;;36.99;23.23
56807;BME280;42687;42.524;12.052;2022-07-22T09:50:18;96950.94;;;36.75;23.25
56807;BME280;42687;42.524;12.052;2022-07-22T09:52:44;96953.78;;;36.63;22.47
56807;BME280;42687;42.524;12.052;2022-07-22T09:55:14;96954.19;;;36.71;23.06
56807;BME280;42687;42.524;12.052;2022-07-22T09:57:40;96938.75;;;36.65;23.02
56807;BME280;42687;42.524;12.052;2022-07-22T10:00:06;96945.06;;;36.66;23.52
56807;BME280;42687;42.524;12.052;2022-07-22T10:02:56;96937.75;;;36.71;23.85
56807;BME280;42687;42.524;12.052;2022-07-22T10:05:23;96938.75;;;36.82;22.84
56807;BME280;42687;42.524;12.052;2022-07-22T10:07:49;96936.38;;;36.91;23.23
56807;BME280;42687;42.524;12.052;2022-07-22T10:10:17;96939.94;;;37.14;23.13
56807;BME280;42687;42.524;12.052;2022-07-22T10:12:44;96897.06;;;37.02;23.75
56807;BME280;42687;42.524;12.052;2022-07-22T10:15:10;96928.13;;;37.30;23.14
56807;BME280;42687;42.524;12.052;2022-07-22T10:17:41;96926.78;;;37.33;22.52
56807;BME280;42687;42.524;12.052;2022-07-22T10:20:07;96930.00;;;37.30;22.47
56807;BME280;42687;42.524;12.052;2022-07-22T10:25:07;96928.41;;;36.89;22.58
56807;BME280;42687;42.524;12.052;2022-07-22T10:30:10;96919.25;;;37.01;22.89
56807;BME280;42687;42.524;12.052;2022-07-22T10:32:37;96929.75;;;37.09;21.82
56807;BME280;42687;42.524;12.052;2022-07-22T10:45:18;96911.84;;;37.46;22.48
56807;BME280;42687;42.524;12.052;2022-07-22T10:47:53;96906.78;;;37.37;22.62
56807;BME280;42687;42.524;12.052;2022-07-22T10:53:12;96910.66;;;37.42;21.62
56807;BME280;42687;42.524;12.052;2022-07-22T10:55:39;96908.25;;;37.23;22.08
56807;BME280;42687;42.524;12.052;2022-07-22T11:00:59;96908.09;;;37.57;22.23
56807;BME280;42687;42.524;12.052;2022-07-22T11:03:25;96909.50;;;37.87;21.70
56807;BME280;42687;42.524;12.052;2022-07-22T11:05:51;96903.88;;;38.04;20.68
56807;BME280;42687;42.524;12.052;2022-07-22T11:08:16;96912.03;;;37.66;21.86
56807;BME280;42687;42.524;12.052;2022-07-22T11:10:50;96904.63;;;37.39;21.29
56807;BME280;42687;42.524;12.052;2022-07-22T11:13:34;96867.34;;;37.71;20.69
56807;BME280;42687;42.524;12.052;2022-07-22T11:18:44;96906.09;;;38.45;20.78
56807;BME280;42687;42.524;12.052;2022-07-22T11:21:10;96906.34;;;38.05;21.28
56807;BME280;42687;42.524;12.052;2022-07-22T11:23:39;96905.91;;;38.19;21.72
56807;BME280;42687;42.524;12.052;2022-07-22T11:26:04;96899.25;;;38.52;20.89
56807;BME280;42687;42.524;12.052;2022-07-22T11:28:30;96896.34;;;38.69;20.19
56807;BME280;42687;42.524;12.052;2022-07-22T11:31:08;96888.69;;;38.29;19.27
56807;BME280;42687;42.524;12.052;2022-07-22T11:33:34;96846.13;;;38.31;19.67
56807;BME280;42687;42.524;12.052;2022-07-22T11:36:01;96895.78;;;38.25;20.18
56807;BME280;42687;42.524;12.052;2022-07-22T11:38:38;96901.69;;;38.06;19.49
56807;BME280;42687;42.524;12.052;2022-07-22T11:41:05;96892.19;;;37.86;20.98
56807;BME280;42687;42.524;12.052;2022-07-22T11:43:37;96897.13;;;38.22;21.51
56807;BME280;42687;42.524;12.052;2022-07-22T11:46:02;96891.13;;;38.25;20.89
56807;BME280;42687;42.524;12.052;2022-07-22T11:48:28;96868.00;;;38.21;21.49
56807;BME280;42687;42.524;12.052;2022-07-22T11:51:01;96885.94;;;38.77;20.79
56807;BME280;42687;42.524;12.052;2022-07-22T11:53:26;96888.69;;;38.29;21.07
56807;BME280;42687;42.524;12.052;2022-07-22T11:55:56;96884.03;;;38.29;21.31
56807;BME280;42687;42.524;12.052;2022-07-22T12:01:03;96885.03;;;38.18;21.04
56807;BME280;42687;42.524;12.052;2022-07-22T12:03:29;96883.19;;;37.91;21.40
56807;BME280;42687;42.524;12.052;2022-07-22T12:05:54;96872.47;;;37.90;21.11
56807;BME280;42687;42.524;12.052;2022-07-22T12:08:20;96843.88;;;37.80;20.84
56807;BME280;42687;42.524;12.052;2022-07-22T12:10:45;96875.81;;;37.97;20.75
56807;BME280;42687;42.524;12.052;2022-07-22T12:13:11;96867.00;;;38.27;20.09
56807;BME280;42687;42.524;12.052;2022-07-22T12:15:38;96868.84;;;38.21;20.83
56807;BME280;42687;42.524;12.052;2022-07-22T12:18:14;96865.66;;;37.10;21.94
56807;BME280;42687;42.524;12.052;2022-07-22T12:20:43;96861.81;;;37.11;21.88
56807;BME280;42687;42.524;12.052;2022-07-22T12:23:09;96853.66;;;37.44;22.32
56807;BME280;42687;42.524;12.052;2022-07-22T12:25:48;96864.25;;;37.90;22.01
56807;BME280;42687;42.524;12.052;2022-07-22T12:28:14;96850.94;;;37.76;22.74
56807;BME280;42687;42.524;12.052;2022-07-22T12:30:39;96854.53;;;38.19;21.72
56807;BME280;42687;42.524;12.052;2022-07-22T12:33:12;96849.22;;;38.02;22.49
56807;BME280;42687;42.524;12.052;2022-07-22T12:35:39;96834.56;;;37.86;21.38
56807;BME280;42687;42.524;12.052;2022-07-22T12:38:08;96847.25;;;38.35;20.78
56807;BME280;42687;42.524;12.052;2022-07-22T12:40:34;96848.78;;;38.21;20.83
56807;BME280;42687;42.524;12.052;2022-07-22T12:43:00;96839.66;;;38.48;20.69
56807;BME280;42687;42.524;12.052;2022-07-22T12:45:30;96851.16;;;38.45;20.27
56807;BME280;42687;42.524;12.052;2022-07-22T12:50:31;96844.06;;;39.23;19.63
56807;BME280;42687;42.524;12.052;2022-07-22T12:52:58;96841.25;;;39.07;18.95
56807;BME280;42687;42.524;12.052;2022-07-22T12:55:24;96848.66;;;39.01;19.05
56807;BME280;42687;42.524;12.052;2022-07-22T12:57:50;96842.00;;;38.87;22.21
56807;BME280;42687;42.524;12.052;2022-07-22T13:00:35;96839.19;;;38.24;23.27
56807;BME280;42687;42.524;12.052;2022-07-22T13:03:01;96830.84;;;37.70;24.06
56807;BME280;42687;42.524;12.052;2022-07-22T13:05:27;96806.97;;;37.66;24.50
56807;BME280;42687;42.524;12.052;2022-07-22T13:07:52;96829.75;;;38.04;24.41
56807;BME280;42687;42.524;12.052;2022-07-22T13:10:19;96822.06;;;38.06;24.07
56807;BME280;42687;42.524;12.052;2022-07-22T13:12:44;96825.06;;;37.34;24.92
56807;BME280;42687;42.524;12.052;2022-07-22T13:15:10;96820.84;;;37.86;24.51
56807;BME280;42687;42.524;12.052;2022-07-22T13:17:35;96820.78;;;38.19;23.82